Walpeup Research, South Australia

2:22 AM CST on September 17, 2014 (GMT +0930)
Mildura | Change Station
CLOSE
Current Station
Airport
Location: Mildura Airport, VIC,
Elevation: 164 ft
Nearby Weather Stations

Elev 164 ft 34.23 °S, 142.09 °E | Updated 52 minutes ago

Scattered Clouds
Scattered Clouds
46 °F
Feels Like 44 °F
N
6
Wind Variable Wind from West

Today
High -- | Low -- °F
--% Chance of Precip.
Yesterday
High -- | Low -- °F
Precip. -- in
5:59 AM 5:54 PM
Last Quarter, 44% visible
Pressure 30.04 in
Visibility 6.2 miles
Clouds Scattered Clouds 7000 ft
Windchill 44 °F
Dew Point 41 °F
Humidity 81%
Rainfall 0.00 in
Snow Depth Not available.
UV 0 out of 12
Pollen Not available.
Air Quality Not available.
Flu Activity Not available.
METAR YMIA 161600Z AUTO 27005KT 9999 // SCT070 08/05 Q1017

More Conditions Fewer Conditions

Pressure 30.04 in
Visibility 6.2 miles
Clouds Scattered Clouds 7000 ft
Windchill 44 °F
Dew Point 41 °F
Humidity 81%
Rainfall 0.00 in
Snow Depth Not available.
UV 0 out of 12
Pollen Not available.
Air Quality Not available.
Flu Activity Not available.
METAR YMIA 161600Z AUTO 27005KT 9999 // SCT070 08/05 Q1017

More Conditions Fewer Conditions

10-Day Weather Forecast

Almanac

Astronomy

Sep. 17, 2014 Rise Set
Actual Time 5:59 AM CST 5:54 PM CST
Civil Twilight 5:34 AM CST 6:19 PM CST
Nautical Twilight 5:04 AM CST 6:49 PM CST
Astronomical Twilight 4:35 AM CST 7:18 PM CST
Moon 1:15 AM CST (9/17) 11:47 AM CST (9/17)
Length of Visible Light 12h 45m
Length of Day
11h 54m
Tomorrow will be 2m 11s longer.
Last Quarter, 44% of the Moon is Illuminated
Sep 16
Last Quarter
Sep 24
New
Oct 1
First Quarter
Oct 8
Full
Oct 15
Last Quarter

Yesterday's Extremes

Country Highs Country Lows

Community

WunderPhotos

Upload Photos

1,753,830 photos uploaded!

Nearby

Snow Depth

Not available.

Earthquake Activity

City Distance Mag. Time & Date
No recent earthquake activity has been reported nearby.
Minimum magnitude displayed is 2.5.

Coastal Water Temperatures

Place Temperature
No Stations Reporting

Nearby Weather Stations